Time;durP1;ratioP1;P1;durP2;ratioP2;P2;SDS_P1;SDS_P2;PMS_P1;PMS_P2;Temp;Humidity;BMP_temperature;BMP_pressure;BME280_temperature;BME280_humidity;BME280_pressure;Samples;Min_cycle;Max_cycle;Signal;HPM_P1;HPM_P2
2024/02/29 00:01:01;;;;;;;;;53.00;40.00;;;;;14.68;100.00;99226.50;5997957;29;97045;-58
2024/02/29 00:04:04;;;;;;;;;49.20;39.00;;;;;14.69;100.00;99224.59;5991774;29;97034;-58
2024/02/29 00:07:09;;;;;;;;;48.60;38.40;;;;;14.72;100.00;99229.53;5983677;29;96420;-58
2024/02/29 00:10:14;;;;;;;;;49.40;38.40;;;;;14.62;100.00;99216.59;5999836;29;96255;-57
2024/02/29 00:13:17;;;;;;;;;44.75;35.00;;;;;14.71;100.00;99219.75;5999395;29;96494;-57
2024/02/29 00:16:20;;;;;;;;;45.00;36.00;;;;;14.66;100.00;99223.19;6002805;29;96522;-57
2024/02/29 00:19:24;;;;;;;;;41.60;34.80;;;;;14.64;100.00;99222.63;5998985;29;96405;-58
2024/02/29 00:22:29;;;;;;;;;41.00;34.00;;;;;14.59;100.00;99222.50;6000614;29;96339;-58
2024/02/29 00:25:32;;;;;;;;;40.60;33.80;;;;;14.59;100.00;99221.69;5997335;29;96613;-57
2024/02/29 00:28:35;;;;;;;;;46.00;37.00;;;;;14.56;100.00;99220.25;5982178;29;96546;-58
2024/02/29 00:31:43;;;;;;;;;44.80;34.60;;;;;14.48;100.00;99217.09;5998999;29;96601;-58
2024/02/29 00:34:47;;;;;;;;;45.75;35.75;;;;;14.61;100.00;99231.22;5999411;29;96822;-58
2024/02/29 00:37:51;;;;;;;;;45.60;35.00;;;;;14.62;100.00;99232.03;5973771;29;97140;-58
2024/02/29 00:40:54;;;;;;;;;41.40;35.00;;;;;14.60;100.00;99231.47;5975728;29;96915;-58
2024/02/29 00:43:57;;;;;;;;;40.00;32.00;;;;;14.59;100.00;99236.06;5974262;29;98442;-58
2024/02/29 00:47:00;;;;;;;;;36.40;30.40;;;;;14.54;100.00;99227.00;5980673;29;96393;-58
2024/02/29 00:50:04;;;;;;;;;39.00;32.00;;;;;14.47;100.00;99224.41;5999165;29;96707;-58
2024/02/29 00:53:08;;;;;;;;;36.00;30.20;;;;;14.52;100.00;99229.13;5997631;29;96738;-58
2024/02/29 00:56:13;;;;;;;;;34.00;30.00;;;;;14.48;100.00;99225.22;6018690;29;96939;-58
2024/02/29 00:59:16;;;;;;;;;36.60;30.60;;;;;14.51;100.00;99231.03;6020600;29;96419;-58
2024/02/29 01:02:19;;;;;;;;;37.00;31.00;;;;;14.51;100.00;99222.88;5992860;29;98760;-58
2024/02/29 01:05:22;;;;;;;;;32.60;28.60;;;;;14.52;100.00;99229.94;5996616;29;97756;-58
2024/02/29 01:08:26;;;;;;;;;31.00;26.00;;;;;14.42;100.00;99218.88;5998814;29;96344;-58
2024/02/29 01:11:29;;;;;;;;;33.25;29.75;;;;;14.54;100.00;99233.25;6009804;29;96365;-58
2024/02/29 01:14:33;;;;;;;;;36.50;32.00;;;;;14.55;100.00;99234.91;6019474;29;96455;-58
2024/02/29 01:17:36;;;;;;;;;33.00;28.67;;;;;14.49;100.00;99218.75;5998306;29;96365;-58
2024/02/29 01:20:39;;;;;;;;;36.40;31.60;;;;;14.51;100.00;99214.75;5997545;29;96397;-58
2024/02/29 01:23:43;;;;;;;;;40.00;32.00;;;;;14.30;100.00;99208.03;6001744;29;96329;-58
2024/02/29 01:26:47;;;;;;;;;41.00;33.00;;;;;14.23;100.00;99217.31;5998196;29;96413;-58
2024/02/29 01:29:50;;;;;;;;;40.00;32.00;;;;;14.21;100.00;99220.31;5997892;29;96439;-58
2024/02/29 01:32:53;;;;;;;;;38.00;32.00;;;;;14.24;100.00;99210.84;5997887;29;96979;-58
2024/02/29 01:35:56;;;;;;;;;40.00;33.20;;;;;14.17;100.00;99215.59;5997760;29;97378;-58
2024/02/29 01:39:00;;;;;;;;;38.20;32.00;;;;;14.13;100.00;99212.50;6011191;29;96775;-58
2024/02/29 01:42:04;;;;;;;;;40.40;33.00;;;;;14.09;100.00;99215.94;6009723;29;96454;-57
2024/02/29 01:45:08;;;;;;;;;41.20;33.00;;;;;14.03;100.00;99206.84;5998725;29;96534;-57
2024/02/29 01:48:12;;;;;;;;;36.40;30.40;;;;;14.05;100.00;99212.03;5999101;29;96592;-57
2024/02/29 01:51:17;;;;;;;;;39.00;32.40;;;;;14.03;100.00;99209.56;5997697;29;96443;-58
2024/02/29 01:54:22;;;;;;;;;38.20;30.80;;;;;14.02;100.00;99210.66;5997904;29;96326;-58
2024/02/29 01:57:25;;;;;;;;;37.00;32.00;;;;;13.99;100.00;99200.25;5997318;29;96323;-58
2024/02/29 02:00:28;;;;;;;;;35.20;30.00;;;;;14.06;100.00;99211.81;6019741;29;96306;-57
2024/02/29 02:03:32;;;;;;;;;36.00;31.00;;;;;13.89;100.00;99217.09;6014764;29;96788;-57
2024/02/29 02:06:36;;;;;;;;;38.00;30.40;;;;;13.84;100.00;99216.97;6006795;29;97646;-57
2024/02/29 02:09:41;;;;;;;;;37.75;31.00;;;;;13.79;100.00;99210.63;5971623;29;96317;-58
2024/02/29 02:12:46;;;;;;;;;37.40;31.20;;;;;13.71;100.00;99208.25;6005018;29;96550;-58
2024/02/29 02:15:49;;;;;;;;;34.40;30.00;;;;;13.73;100.00;99203.44;6001208;29;96770;-58
2024/02/29 02:18:53;;;;;;;;;37.20;30.80;;;;;13.67;100.00;99209.78;6009225;29;97240;-57
2024/02/29 02:21:58;;;;;;;;;39.50;31.00;;;;;13.65;100.00;99204.59;5984590;29;96473;-57
2024/02/29 02:25:03;;;;;;;;;32.75;28.00;;;;;13.57;100.00;99193.28;5995673;29;96478;-58
2024/02/29 02:28:06;;;;;;;;;38.00;31.00;;;;;13.62;100.00;99194.25;6002771;29;96413;-58
2024/02/29 02:31:09;;;;;;;;;38.00;30.00;;;;;13.59;100.00;99194.69;6007297;29;96963;-58
2024/02/29 02:34:13;;;;;;;;;32.00;29.00;;;;;13.69;100.00;99200.34;5996783;29;96539;-57
2024/02/29 02:37:18;;;;;;;;;33.80;29.80;;;;;13.78;100.00;99203.56;6005769;28;96370;-57
2024/02/29 02:40:32;;;;;;;;;38.50;30.50;;;;;13.82;100.00;99192.03;6922070;23;98177;31
2024/02/29 02:43:35;;;;;;;;;45.25;35.25;;;;;13.68;100.00;99201.41;6466622;23;98773;-56
2024/02/29 02:50:23;;;;;;;;;45.00;36.00;;;;;13.29;100.00;99183.91;6162641;23;99188;-56
2024/02/29 03:07:17;;;;;;;;;45.00;35.40;;;;;13.85;100.00;99209.69;7735691;22;1487811;-54
2024/02/29 03:10:20;;;;;;;;;50.40;38.00;;;;;13.89;100.00;99202.72;7781709;22;96321;-55
2024/02/29 03:13:23;;;;;;;;;44.80;34.80;;;;;13.56;100.00;99165.38;7762704;22;99014;-56
2024/02/29 03:16:27;;;;;;;;;44.75;35.50;;;;;13.80;100.00;99212.28;7796643;22;96322;-54
2024/02/29 03:34:31;;;;;;;;;42.75;33.75;;;;;13.85;100.00;99215.09;7757698;22;98885;-56
2024/02/29 03:37:35;;;;;;;;;41.20;32.60;;;;;13.81;100.00;99211.22;7822296;22;96806;-55
2024/02/29 03:41:00;;;;;;;;;40.00;33.00;;;;;13.02;100.00;99088.75;7819389;22;96190;31
2024/02/29 03:47:27;;;;;;;;;45.00;33.75;;;;;13.49;100.00;99201.75;7660903;22;96317;-90
2024/02/29 03:50:33;;;;;;;;;42.25;33.00;;;;;12.37;100.00;99051.84;7663814;22;96924;-90
2024/02/29 03:53:36;;;;;;;;;35.50;29.50;;;;;13.44;100.00;99192.44;7641330;22;96283;-90
2024/02/29 03:56:39;;;;;;;;;39.80;32.20;;;;;13.56;100.00;99195.16;7628129;22;97043;-90
2024/02/29 03:59:44;;;;;;;;;35.00;30.00;;;;;13.43;100.00;99195.38;7629869;22;96763;-90
2024/02/29 04:02:48;;;;;;;;;37.50;31.00;;;;;13.62;100.00;99209.66;7602363;22;98746;-90
2024/02/29 04:05:52;;;;;;;;;34.20;30.20;;;;;13.62;100.00;99198.81;7623356;22;97157;-57
2024/02/29 04:08:55;;;;;;;;;40.80;32.80;;;;;13.67;100.00;99207.09;7661270;22;97036;-58
2024/02/29 04:11:59;;;;;;;;;43.00;30.00;;;;;13.70;100.00;99196.59;7660835;22;96324;-57
2024/02/29 04:15:02;;;;;;;;;36.20;30.20;;;;;13.75;100.00;99199.44;7661093;22;96832;-57
2024/02/29 04:18:06;;;;;;;;;43.40;35.00;;;;;13.78;100.00;99203.56;7658566;22;96891;-57
2024/02/29 04:21:10;;;;;;;;;45.00;34.00;;;;;13.78;100.00;99193.53;7631972;22;96973;-57
2024/02/29 04:24:13;;;;;;;;;44.00;35.00;;;;;13.78;100.00;99184.59;7631939;22;98573;-56
2024/02/29 04:27:17;;;;;;;;;44.40;35.00;;;;;13.80;100.00;99188.72;7658726;22;96459;-57
2024/02/29 04:30:20;;;;;;;;;43.60;33.80;;;;;13.72;100.00;99175.53;7660543;22;97679;-57
2024/02/29 04:33:23;;;;;;;;;39.00;30.20;;;;;13.69;100.00;99185.97;7660564;22;96225;-58
2024/02/29 04:36:29;;;;;;;;;37.00;30.20;;;;;13.67;100.00;99180.00;7659628;22;96511;-58
2024/02/29 04:39:32;;;;;;;;;40.20;32.80;;;;;13.70;100.00;99180.34;7659725;22;97496;-58
2024/02/29 04:42:35;;;;;;;;;36.20;30.00;;;;;13.74;100.00;99178.81;7660442;22;96355;-58
2024/02/29 04:45:39;;;;;;;;;36.50;31.25;;;;;13.74;100.00;99170.66;7607419;22;96959;-58
2024/02/29 04:48:42;;;;;;;;;35.00;31.20;;;;;13.49;100.00;99199.06;7658280;22;96382;-58
2024/02/29 04:51:47;;;;;;;;;43.25;32.00;;;;;13.79;100.00;99169.97;7660871;22;96382;-58
2024/02/29 04:54:50;;;;;;;;;37.50;30.00;;;;;13.77;100.00;99181.06;7661689;22;96856;-58
2024/02/29 05:05:23;;;;;;;;;37.75;31.50;;;;;13.33;100.00;99181.59;7716384;22;99026;-55
2024/02/29 05:23:27;;;;;;;;;39.60;31.60;;;;;13.42;100.00;99189.16;7830348;22;98576;-55
2024/02/29 05:26:30;;;;;;;;;33.60;30.00;;;;;13.48;100.00;99200.94;7825780;22;96639;-54
2024/02/29 05:29:33;;;;;;;;;38.00;32.00;;;;;13.56;100.00;99195.16;7853912;22;96216;-54
2024/02/29 05:32:37;;;;;;;;;37.75;30.00;;;;;13.57;100.00;99196.81;7852562;22;96268;-54
2024/02/29 05:35:40;;;;;;;;;39.80;32.00;;;;;13.60;100.00;99196.34;7850646;22;96392;-55
2024/02/29 05:42:29;;;;;;;;;39.20;30.00;;;;;13.50;100.00;99201.50;7764258;22;98628;-55
2024/02/29 05:45:32;;;;;;;;;40.80;33.40;;;;;13.53;100.00;99206.47;7806197;22;96882;-55
2024/02/29 05:48:37;;;;;;;;;44.00;33.00;;;;;13.53;100.00;99201.06;7814150;22;96210;-55
2024/02/29 05:51:50;;;;;;;;;39.50;32.50;;;;;13.58;100.00;99203.06;7770077;22;98822;31
2024/02/29 05:54:57;;;;;;;;;45.00;35.60;;;;;13.36;100.00;99205.47;7695857;22;96359;-56
2024/02/29 05:58:01;;;;;;;;;38.80;30.80;;;;;13.02;100.00;99158.28;7757040;22;99009;-55
2024/02/29 06:01:05;;;;;;;;;42.00;33.00;;;;;13.29;100.00;99202.88;7825518;22;99049;-56
2024/02/29 06:04:08;;;;;;;;;43.20;33.40;;;;;13.32;100.00;99201.59;7852026;22;96301;-55
2024/02/29 06:07:13;;;;;;;;;45.00;33.40;;;;;13.28;100.00;99209.38;7851636;22;96270;-56
2024/02/29 06:10:19;;;;;;;;;43.00;34.50;;;;;13.39;100.00;99202.31;7850024;22;96328;-55
2024/02/29 06:13:28;;;;;;;;;40.50;31.50;;;;;13.34;100.00;99213.03;7827888;22;97135;31
2024/02/29 06:16:31;;;;;;;;;43.25;32.00;;;;;13.13;100.00;99213.53;7709173;22;96301;-56
2024/02/29 06:19:38;;;;;;;;;40.40;33.00;;;;;12.99;100.00;99207.47;7716351;22;96185;-55
2024/02/29 06:22:42;;;;;;;;;35.00;29.60;;;;;13.11;100.00;99205.66;7696038;22;96269;-56
2024/02/29 06:25:48;;;;;;;;;30.60;28.00;;;;;13.16;100.00;99207.66;7667319;22;96413;-56
2024/02/29 06:28:52;;;;;;;;;36.40;30.00;;;;;13.24;100.00;99204.66;7699839;22;97715;-55
2024/02/29 06:31:57;;;;;;;;;38.00;32.00;;;;;13.31;100.00;99206.19;7733506;22;96669;-55
2024/02/29 06:35:00;;;;;;;;;36.40;29.20;;;;;13.28;100.00;99198.53;7699664;22;99118;-55
2024/02/29 06:38:03;;;;;;;;;34.00;30.00;;;;;13.38;100.00;99204.22;7810700;22;96960;-55
2024/02/29 06:41:08;;;;;;;;;39.00;29.00;;;;;13.38;100.00;99200.69;7782823;22;97437;-54
2024/02/29 06:44:13;;;;;;;;;33.60;29.20;;;;;13.42;100.00;99201.84;7813112;22;96230;-54
2024/02/29 06:47:16;;;;;;;;;39.25;31.00;;;;;13.51;100.00;99202.34;7770340;22;98607;-56
2024/02/29 06:50:20;;;;;;;;;40.80;32.40;;;;;13.43;100.00;99204.34;7793478;22;97589;-56
2024/02/29 06:53:38;;;;;;;;;35.33;29.33;;;;;13.39;100.00;99205.84;7800309;22;98065;31
2024/02/29 06:56:41;;;;;;;;;34.60;27.00;;;;;13.30;100.00;99201.00;7737301;22;96741;-55
2024/02/29 06:59:45;;;;;;;;;36.00;31.00;;;;;13.00;100.00;99207.22;7735270;22;96207;-57
2024/02/29 07:02:51;;;;;;;;;36.00;31.00;;;;;12.85;100.00;99216.81;7729917;22;98360;-57
2024/02/29 07:05:55;;;;;;;;;40.50;30.50;;;;;13.07;100.00;99204.44;7729990;22;98673;-56
2024/02/29 07:08:58;;;;;;;;;37.00;30.00;;;;;13.08;100.00;99200.66;7814335;22;96174;-55
2024/02/29 07:12:01;;;;;;;;;37.60;31.20;;;;;13.14;100.00;99204.38;7810562;22;96706;-58
2024/02/29 07:15:06;;;;;;;;;38.25;32.00;;;;;12.68;100.00;99102.16;7788996;22;98637;-57
2024/02/29 07:18:11;;;;;;;;;44.25;32.75;;;;;12.97;100.00;99177.91;7770297;22;96256;-88
2024/02/29 07:21:14;;;;;;;;;32.20;28.00;;;;;13.10;100.00;99200.41;7715495;22;96490;-88
2024/02/29 07:24:17;;;;;;;;;32.40;27.80;;;;;13.34;100.00;99205.72;7719046;22;96451;-88
2024/02/29 07:27:21;;;;;;;;;34.00;30.00;;;;;13.00;100.00;99214.50;7725458;22;96821;-89
2024/02/29 07:30:27;;;;;;;;;29.00;24.75;;;;;13.21;100.00;99186.97;7744392;22;96376;-89
2024/02/29 07:33:34;;;;;;;;;34.00;28.60;;;;;12.21;100.00;99022.75;7744414;22;96252;-88
2024/02/29 07:36:39;;;;;;;;;34.50;29.00;;;;;11.91;100.00;99004.66;7757269;22;96748;-88
2024/02/29 07:39:42;;;;;;;;;32.80;27.40;;;;;13.27;100.00;99196.03;7717213;22;96346;-88
2024/02/29 07:42:46;;;;;;;;;36.00;30.00;;;;;13.30;100.00;99190.16;7715090;22;96239;-88
2024/02/29 07:45:50;;;;;;;;;37.33;32.00;;;;;12.11;100.00;99016.03;7714639;22;96685;-88
2024/02/29 07:48:54;;;;;;;;;33.00;27.60;;;;;12.65;100.00;99106.16;7715491;22;96230;-88
2024/02/29 07:51:57;;;;;;;;;33.75;29.25;;;;;13.25;100.00;99207.09;7715994;22;99610;-88
2024/02/29 07:55:01;;;;;;;;;39.20;30.00;;;;;12.18;100.00;99004.28;7715185;22;96880;-88
2024/02/29 07:58:05;;;;;;;;;39.00;31.20;;;;;13.44;100.00;99189.72;7715328;22;96833;-88
2024/02/29 08:01:11;;;;;;;;;35.00;30.00;;;;;12.32;100.00;99030.91;7740408;22;96262;-88
2024/02/29 08:04:14;;;;;;;;;36.80;31.40;;;;;13.52;100.00;99202.13;7714388;22;96272;-88
2024/02/29 08:07:18;;;;;;;;;35.60;31.00;;;;;13.57;100.00;99148.06;7713705;22;96832;-88
2024/02/29 08:10:21;;;;;;;;;43.00;32.80;;;;;13.74;100.00;99156.28;7715359;22;96446;-88
2024/02/29 08:13:25;;;;;;;;;39.40;32.00;;;;;13.69;100.00;99146.16;7767591;22;97892;-88
2024/02/29 08:16:30;;;;;;;;;42.00;31.00;;;;;13.53;100.00;99122.50;7739679;22;96253;-88
2024/02/29 08:19:33;;;;;;;;;39.50;33.00;;;;;13.68;100.00;99149.13;7739511;22;97130;-88
2024/02/29 08:22:38;;;;;;;;;38.00;31.60;;;;;13.05;100.00;99011.66;7766329;22;96724;-88
2024/02/29 08:25:42;;;;;;;;;37.00;32.00;;;;;13.44;100.00;98983.06;7716257;22;97049;-88
2024/02/29 08:28:48;;;;;;;;;37.00;30.00;;;;;14.85;100.00;99171.47;7750913;22;97091;-88
2024/02/29 08:31:53;;;;;;;;;37.50;31.75;;;;;14.35;100.00;99047.28;7726415;22;96888;-88
2024/02/29 08:34:56;;;;;;;;;40.40;32.00;;;;;14.06;100.00;99010.38;7739699;22;96334;-88
2024/02/29 08:38:00;;;;;;;;;37.80;30.00;;;;;15.03;100.00;99168.53;7740390;22;98016;-88
2024/02/29 08:41:05;;;;;;;;;42.00;32.00;;;;;14.54;100.00;99047.94;7714750;22;96750;-88
2024/02/29 08:44:08;;;;;;;;;38.20;31.00;;;;;14.71;100.00;99021.63;7714493;22;96410;-88
2024/02/29 08:47:13;;;;;;;;;34.00;30.20;;;;;14.67;100.00;98998.78;7713490;22;96920;-88
2024/02/29 08:50:16;;;;;;;;;36.60;30.00;;;;;14.41;100.00;98905.31;7713840;22;96400;-88
2024/02/29 08:53:20;;;;;;;;;44.20;32.80;;;;;14.84;100.00;98972.47;7739250;22;96931;-87
2024/02/29 08:56:23;;;;;;;;;38.40;31.60;;;;;16.33;100.00;99165.47;7715897;22;96470;-88
2024/02/29 08:59:27;;;;;;;;;35.60;31.00;;;;;15.65;100.00;99013.63;7716000;22;96989;-88
2024/02/29 09:02:31;;;;;;;;;39.00;30.00;;;;;16.11;100.00;99083.84;7714495;22;97048;-88
2024/02/29 09:05:35;;;;;;;;;37.40;32.00;;;;;16.67;100.00;99125.34;7714282;22;96453;-88
2024/02/29 09:08:38;;;;;;;;;39.40;32.40;;;;;15.96;100.00;99021.94;7715207;22;96366;-88
2024/02/29 09:11:41;;;;;;;;;41.00;33.00;;;;;15.75;100.00;99047.19;7716216;22;96518;-88
2024/02/29 09:14:46;;;;;;;;;41.40;32.40;;;;;16.42;100.00;99140.28;7713084;22;96340;-88
2024/02/29 09:17:51;;;;;;;;;39.00;32.80;;;;;16.36;100.00;99138.59;7722617;22;97318;-87
2024/02/29 09:20:54;;;;;;;;;44.25;33.75;;;;;16.31;100.00;99134.97;7753107;22;96213;-87
2024/02/29 09:23:57;;;;;;;;;38.75;32.25;;;;;16.46;100.00;99152.31;7726048;22;96304;-87
2024/02/29 09:27:01;;;;;;;;;41.00;32.50;;;;;16.56;100.00;99151.63;7724912;22;96314;-87
2024/02/29 09:30:05;;;;;;;;;42.67;33.33;;;;;16.86;100.00;99170.22;7725094;22;96447;-88
2024/02/29 09:33:10;;;;;;;;;39.80;32.00;;;;;17.08;100.00;99157.41;7725426;22;96354;-87
2024/02/29 09:36:15;;;;;;;;;40.50;33.25;;;;;17.31;100.00;99157.06;7710577;22;96296;-57
2024/02/29 09:39:18;;;;;;;;;36.00;31.00;;;;;17.33;100.00;99154.91;7745050;22;96397;-53
2024/02/29 09:42:22;;;;;;;;;37.00;32.00;;;;;17.57;100.00;99154.56;7746892;22;96273;-54
2024/02/29 09:45:25;;;;;;;;;34.75;30.00;;;;;17.89;100.00;99138.19;7747943;22;96269;-53
2024/02/29 09:48:31;;;;;;;;;39.25;32.00;;;;;18.10;100.00;99142.69;7746789;22;96764;-53
2024/02/29 09:51:35;;;;;;;;;45.00;35.00;;;;;18.35;100.00;99136.53;7719397;22;96524;-52
2024/02/29 09:54:40;;;;;;;;;42.40;32.00;;;;;19.30;100.00;99130.53;7746365;22;96290;-53
2024/02/29 09:57:45;;;;;;;;;38.75;32.00;;;;;20.06;100.00;99121.47;7747732;22;96281;-54
2024/02/29 10:00:49;;;;;;;;;44.80;33.40;;;;;20.45;100.00;99122.47;7747526;22;96283;-55
2024/02/29 10:03:55;;;;;;;;;38.20;32.20;;;;;20.58;100.00;99130.06;7747546;22;96452;-54
2024/02/29 10:06:59;;;;;;;;;45.40;35.40;;;;;20.43;100.00;99127.38;7748432;22;96298;-54
2024/02/29 10:10:09;;;;;;;;;41.60;34.40;;;;;19.93;100.00;99128.34;7720328;22;96444;-53
2024/02/29 10:13:12;;;;;;;;;41.20;34.20;;;;;19.76;100.00;99122.34;7748062;22;96899;-53
2024/02/29 10:16:16;;;;;;;;;44.40;36.00;;;;;19.58;100.00;99115.53;7748520;22;96499;-53
2024/02/29 10:19:21;;;;;;;;;41.40;33.00;;;;;19.42;100.00;99105.66;7747230;22;96278;-53
2024/02/29 10:22:24;;;;;;;;;43.00;32.00;;;;;19.60;100.00;99118.78;7745480;22;96452;-54
2024/02/29 10:25:28;;;;;;;;;43.00;35.40;;;;;19.71;100.00;99117.69;7747238;22;96430;-54
2024/02/29 10:28:31;;;;;;;;;44.75;34.25;;;;;19.60;100.00;99104.28;7747341;22;96230;-53
2024/02/29 10:31:34;;;;;;;;;43.20;34.40;;;;;19.63;100.00;99117.44;7747353;22;96163;-53
2024/02/29 10:34:42;;;;;;;;;42.00;35.00;;;;;19.57;100.00;99113.06;7719023;22;96616;-54
2024/02/29 10:37:47;;;;;;;;;43.00;33.00;;;;;19.55;100.00;99104.34;7746176;22;96452;-53
2024/02/29 10:40:56;;;;;;;;;42.75;33.75;;;;;19.50;100.00;99096.91;7744835;22;96509;-56
2024/02/29 10:44:03;;;;;;;;;42.00;32.60;;;;;19.44;100.00;99093.41;7745156;22;96603;-53
2024/02/29 10:47:10;;;;;;;;;43.20;33.40;;;;;19.52;100.00;99097.47;7747730;22;96943;-54
2024/02/29 10:50:19;;;;;;;;;46.00;34.60;;;;;19.57;100.00;99086.53;7747476;22;96483;-54
2024/02/29 10:53:33;;;;;;;;;44.20;33.00;;;;;19.29;100.00;99079.69;7747569;22;96473;-54
2024/02/29 10:56:37;;;;;;;;;46.00;35.00;;;;;19.25;100.00;99077.78;7746613;22;96209;-54
2024/02/29 10:59:42;;;;;;;;;38.67;33.00;;;;;19.27;100.00;99070.13;7746806;22;96620;-56
2024/02/29 11:02:46;;;;;;;;;41.20;33.00;;;;;19.20;100.00;99069.59;7747885;22;96210;-54
2024/02/29 11:05:51;;;;;;;;;39.60;32.60;;;;;19.26;100.00;99066.56;7745805;22;96130;-55
2024/02/29 11:08:55;;;;;;;;;43.00;33.40;;;;;19.24;100.00;99066.03;7718058;22;98368;-55
2024/02/29 11:12:09;;;;;;;;;41.00;33.00;;;;;19.20;100.00;99055.91;7746833;22;96858;-52
2024/02/29 11:15:12;;;;;;;;;39.00;32.00;;;;;19.21;100.00;99057.53;7719681;22;96597;-54
2024/02/29 11:18:22;;;;;;;;;43.20;32.20;;;;;19.11;100.00;99044.69;7747986;22;96190;-52
2024/02/29 11:21:29;;;;;;;;;38.50;31.75;;;;;19.37;100.00;99053.72;7747594;22;96402;-52
2024/02/29 11:24:35;;;;;;;;;41.75;32.50;;;;;19.40;100.00;99048.50;7749257;22;96178;-53
2024/02/29 11:27:39;;;;;;;;;41.40;32.00;;;;;19.42;100.00;99046.31;7749050;22;96340;-53
2024/02/29 11:30:50;;;;;;;;;40.40;33.40;;;;;19.13;100.00;99039.78;7749210;22;96417;-53
2024/02/29 11:33:56;;;;;;;;;38.40;32.20;;;;;18.88;100.00;99043.31;7749301;22;96757;-53
2024/02/29 11:37:07;;;;;;;;;42.60;34.60;;;;;18.97;100.00;99032.66;7748284;22;96295;-53
2024/02/29 11:40:15;;;;;;;;;40.60;33.80;;;;;18.86;100.00;99022.84;7749076;22;96302;-53
2024/02/29 11:43:19;;;;;;;;;40.20;32.00;;;;;18.80;100.00;99030.22;7721337;22;97027;-53
2024/02/29 11:46:23;;;;;;;;;41.00;32.60;;;;;18.58;100.00;99024.16;7747219;22;96070;-53
2024/02/29 11:49:27;;;;;;;;;40.40;32.40;;;;;18.68;100.00;99017.88;7719159;22;97124;-53
2024/02/29 11:52:32;;;;;;;;;38.40;33.00;;;;;18.80;100.00;99015.72;7748803;22;96950;-53
2024/02/29 11:55:35;;;;;;;;;41.60;33.40;;;;;18.74;100.00;99011.34;7748499;22;96975;-54
2024/02/29 11:58:39;;;;;;;;;40.00;33.00;;;;;18.87;100.00;99008.91;7745053;22;96225;-58
2024/02/29 12:01:43;;;;;;;;;44.00;33.40;;;;;19.00;100.00;99002.09;7737532;22;96309;-58
2024/02/29 12:04:46;;;;;;;;;37.75;32.00;;;;;18.95;100.00;99007.53;7710842;22;96207;-58
2024/02/29 12:07:51;;;;;;;;;43.00;32.40;;;;;19.12;100.00;99002.63;7737273;22;96285;-58
2024/02/29 12:10:58;;;;;;;;;41.40;34.00;;;;;19.08;100.00;98984.31;7737319;22;98152;-57
2024/02/29 12:14:02;;;;;;;;;41.00;34.40;;;;;19.02;100.00;98997.97;7737443;22;96295;-57
2024/02/29 12:17:05;;;;;;;;;40.50;33.00;;;;;19.24;100.00;98994.97;7736751;22;97625;-58
2024/02/29 12:20:10;;;;;;;;;45.60;36.00;;;;;19.19;100.00;99003.16;7708022;22;96945;-57
2024/02/29 12:23:20;;;;;;;;;45.00;33.50;;;;;19.35;100.00;98993.81;7737144;22;96305;-57
2024/02/29 12:26:24;;;;;;;;;43.60;34.00;;;;;19.54;100.00;98987.81;7736582;22;96915;-58
2024/02/29 12:29:27;;;;;;;;;43.00;35.00;;;;;19.80;100.00;98981.16;7708190;22;96660;-59
2024/02/29 12:32:30;;;;;;;;;44.60;35.40;;;;;20.16;100.00;98982.66;7737109;22;96346;-59
2024/02/29 12:35:34;;;;;;;;;47.00;36.00;;;;;20.36;100.00;98986.41;7735620;22;96430;-58
2024/02/29 12:38:40;;;;;;;;;46.50;36.00;;;;;20.14;100.00;98979.38;7736026;22;96148;-58
2024/02/29 12:41:44;;;;;;;;;40.20;32.20;;;;;20.28;100.00;98982.31;7735649;22;96960;-57
2024/02/29 12:44:47;;;;;;;;;46.25;36.00;;;;;20.63;100.00;98970.34;7736350;22;96402;-58
2024/02/29 12:47:50;;;;;;;;;44.50;34.00;;;;;20.73;100.00;98970.25;7736016;22;96368;-58
2024/02/29 12:50:53;;;;;;;;;45.00;36.00;;;;;20.94;100.00;98963.53;7736355;22;96568;-58
2024/02/29 12:53:58;;;;;;;;;41.50;33.75;;;;;21.09;100.00;98955.16;7736957;22;96404;-58
2024/02/29 12:57:01;;;;;;;;;44.20;33.00;;;;;21.53;100.00;98952.28;7736400;22;96313;-58
2024/02/29 13:00:06;;;;;;;;;43.60;35.60;;;;;21.93;100.00;98951.00;7736680;22;96378;-58
2024/02/29 13:03:10;;;;;;;;;41.20;33.00;;;;;22.39;100.00;98953.09;7737513;22;96176;-58
2024/02/29 13:06:13;;;;;;;;;42.40;35.40;;;;;22.84;100.00;98935.94;7708162;22;96655;-58
2024/02/29 13:09:19;;;;;;;;;45.40;35.40;;;;;23.05;100.00;98928.16;7738087;22;96484;-58
2024/02/29 13:12:23;;;;;;;;;44.20;35.60;;;;;23.37;100.00;98937.47;7737582;22;96447;-57
2024/02/29 13:15:26;;;;;;;;;43.60;35.00;;;;;23.34;100.00;98933.41;7737157;22;96557;-57
2024/02/29 13:18:29;;;;;;;;;44.00;36.00;;;;;23.35;100.00;98910.28;7737232;22;96387;-58
2024/02/29 13:21:32;;;;;;;;;37.00;32.00;;;;;23.58;100.00;98919.47;7737191;22;96217;-58
2024/02/29 13:24:38;;;;;;;;;43.40;35.00;;;;;23.60;100.00;98912.53;7735862;22;97204;-59
2024/02/29 13:27:42;;;;;;;;;45.00;35.00;;;;;23.79;100.00;98911.63;7736949;22;96241;-58
2024/02/29 13:30:45;;;;;;;;;43.60;35.00;;;;;24.01;100.00;98904.22;7735669;22;96546;-58
2024/02/29 13:33:48;;;;;;;;;41.60;35.20;;;;;23.97;100.00;98905.16;7736204;22;96290;-58
2024/02/29 13:36:52;;;;;;;;;44.60;35.00;;;;;23.84;100.00;98906.00;7736086;22;96269;-59
2024/02/29 13:39:56;;;;;;;;;43.20;35.00;;;;;23.77;100.00;98900.09;7736451;22;96313;-58
2024/02/29 13:43:00;;;;;;;;;45.00;35.00;;;;;23.84;100.00;98889.50;7736506;22;96259;-59
2024/02/29 13:46:03;;;;;;;;;42.50;35.00;;;;;23.82;100.00;98892.53;7736858;22;96442;-59
2024/02/29 13:49:08;;;;;;;;;39.20;34.20;;;;;23.59;100.00;98877.06;7736629;22;96990;-58
2024/02/29 13:52:24;;;;;;;;;47.00;36.00;;;;;23.24;100.00;98889.56;7737248;22;96768;-58
2024/02/29 13:55:29;;;;;;;;;43.20;34.20;;;;;23.06;100.00;98879.47;7736784;22;96354;-59
2024/02/29 13:58:32;;;;;;;;;42.80;35.00;;;;;23.14;100.00;98873.25;7736608;22;98049;-57
2024/02/29 14:01:35;;;;;;;;;50.33;36.00;;;;;23.18;100.00;98872.34;7736490;22;96664;-58
2024/02/29 14:04:39;;;;;;;;;42.40;34.40;;;;;23.16;100.00;98882.84;7736547;22;96615;-59
2024/02/29 14:07:42;;;;;;;;;47.50;36.00;;;;;23.12;100.00;98870.81;7736405;22;96212;-58
2024/02/29 14:10:50;;;;;;;;;45.60;36.00;;;;;23.02;100.00;98865.50;7736133;22;96334;-57
2024/02/29 14:13:53;;;;;;;;;45.20;34.00;;;;;22.77;100.00;98869.53;7736213;22;96388;-58
2024/02/29 14:16:56;;;;;;;;;45.00;36.20;;;;;22.34;100.00;98868.84;7736166;22;96831;-58
2024/02/29 14:20:00;;;;;;;;;43.00;35.00;;;;;22.12;100.00;98868.66;7736608;22;96337;-58
2024/02/29 14:23:03;;;;;;;;;46.00;36.00;;;;;21.98;100.00;98854.03;7736152;22;96882;-58
2024/02/29 14:26:09;;;;;;;;;45.20;35.00;;;;;21.79;100.00;98858.66;7735330;22;97320;-58
2024/02/29 14:29:12;;;;;;;;;48.60;37.40;;;;;21.71;100.00;98853.81;7707805;22;96654;-59
2024/02/29 14:32:15;;;;;;;;;43.75;35.00;;;;;21.63;100.00;98855.31;7736212;22;96483;-57
2024/02/29 14:35:18;;;;;;;;;45.00;36.00;;;;;21.68;100.00;98854.41;7735822;22;96227;-58
2024/02/29 14:38:22;;;;;;;;;46.40;36.40;;;;;21.34;100.00;98852.66;7736245;22;96307;-58
2024/02/29 14:41:29;;;;;;;;;47.00;37.50;;;;;21.15;100.00;98847.13;7736217;22;96827;-58
2024/02/29 14:44:32;;;;;;;;;45.60;35.00;;;;;20.89;100.00;98848.47;7736248;22;96319;-58
2024/02/29 14:47:36;;;;;;;;;43.20;35.60;;;;;20.68;100.00;98847.84;7736007;22;97063;-58
2024/02/29 14:50:40;;;;;;;;;46.60;36.00;;;;;20.52;100.00;98849.09;7734677;22;96359;-58
2024/02/29 14:53:49;;;;;;;;;45.00;35.80;;;;;20.52;100.00;98846.38;7733726;22;97097;-58
2024/02/29 14:56:54;;;;;;;;;46.80;35.80;;;;;20.37;100.00;98842.94;7734946;22;96399;-58
2024/02/29 14:59:57;;;;;;;;;47.00;37.00;;;;;20.27;100.00;98833.66;7736419;22;96497;-58